LOS ANGELES INTL

KLAX (LAX)
Los Angeles, California
Towered

Vatsim Metar:
KLAX 131853Z 24007KT 9SM BKN019 OVC040 15/11 A2993 RMK AO2 SLP135 T01500106 $